Time;durP1;ratioP1;P1;durP2;ratioP2;P2;SDS_P1;SDS_P2;PMS_P1;PMS_P2;Temp;Humidity;BMP_temperature;BMP_pressure;BME280_temperature;BME280_humidity;BME280_pressure;Samples;Min_cycle;Max_cycle;Signal;HPM_P1;HPM_P2
2023/10/17 00:01:13;;;;;;;5.80;2.60;;;;;;;8.85;100.00;101951.13;5066328;28;20080;-63
2023/10/17 00:04:49;;;;;;;7.72;3.10;;;;;;;8.82;100.00;101955.13;5063811;28;20405;-64
2023/10/17 00:07:11;;;;;;;6.65;3.00;;;;;;;8.80;100.00;101953.69;5044114;28;20135;-63
2023/10/17 00:09:59;;;;;;;9.07;2.97;;;;;;;8.85;100.00;101951.97;5074819;28;20113;-64
2023/10/17 00:12:52;;;;;;;10.00;3.50;;;;;;;8.92;100.00;101941.84;5066740;28;20102;-64
2023/10/17 00:15:40;;;;;;;11.80;3.45;;;;;;;8.94;100.00;101942.41;5046969;28;20060;-64
2023/10/17 00:18:28;;;;;;;7.82;2.97;;;;;;;8.93;100.00;101940.78;5042421;28;20044;-63
2023/10/17 00:21:27;;;;;;;7.47;3.10;;;;;;;8.96;100.00;101942.19;5065187;28;20070;-62
2023/10/17 00:24:19;;;;;;;9.38;3.80;;;;;;;8.94;100.00;101944.31;5042328;28;20190;-64
2023/10/17 00:27:07;;;;;;;6.95;3.30;;;;;;;8.97;100.00;101946.56;5040331;28;20052;-63
2023/10/17 00:29:55;;;;;;;7.65;3.40;;;;;;;8.99;100.00;101940.91;5046181;28;20051;-63
2023/10/17 00:32:44;;;;;;;10.45;3.30;;;;;;;8.96;100.00;101937.59;5040887;28;20052;-62
2023/10/17 00:35:38;;;;;;;7.93;3.67;;;;;;;8.88;100.00;101942.53;5060153;28;20162;-63
2023/10/17 00:38:29;;;;;;;10.00;3.67;;;;;;;8.86;100.00;101940.03;5040473;28;20049;-64
2023/10/17 00:41:29;;;;;;;6.78;3.55;;;;;;;8.90;100.00;101937.69;5050999;28;20053;-61
2023/10/17 00:44:24;;;;;;;9.43;3.63;;;;;;;8.94;100.00;101945.13;5053518;28;20049;-63
2023/10/17 00:47:13;;;;;;;7.85;3.20;;;;;;;8.97;100.00;101946.56;5040050;28;20049;-62
2023/10/17 00:50:07;;;;;;;8.68;3.40;;;;;;;8.94;100.00;101941.59;5059855;28;20105;-62
2023/10/17 00:52:56;;;;;;;8.70;3.17;;;;;;;8.93;100.00;101929.91;5048605;28;20048;-62
2023/10/17 00:55:51;;;;;;;10.02;3.40;;;;;;;8.94;100.00;101915.25;5033049;28;20053;-61
2023/10/17 00:58:42;;;;;;;23.15;3.80;;;;;;;8.91;100.00;101913.00;5048911;28;20048;-63
2023/10/17 01:01:32;;;;;;;6.63;3.33;;;;;;;8.94;100.00;101917.97;5061532;28;20485;-62
2023/10/17 01:04:23;;;;;;;8.68;3.55;;;;;;;8.99;100.00;101913.72;5077366;28;20044;-58
2023/10/17 01:07:12;;;;;;;7.45;3.38;;;;;;;8.95;100.00;101919.63;5065379;28;20052;-61
2023/10/17 01:10:24;;;;;;;9.52;3.15;;;;;;;8.95;100.00;101919.63;5062503;28;20045;-63
2023/10/17 01:13:12;;;;;;;8.50;3.50;;;;;;;8.92;100.00;101914.66;5053091;28;20044;-62
2023/10/17 01:16:06;;;;;;;9.18;3.15;;;;;;;8.91;100.00;101914.88;5082095;28;20503;-62
2023/10/17 01:18:54;;;;;;;7.07;3.03;;;;;;;8.89;100.00;101912.38;5073852;28;20041;-64
2023/10/17 01:21:42;;;;;;;8.27;3.38;;;;;;;8.89;100.00;101917.81;5059387;28;20123;-63
2023/10/17 01:24:32;;;;;;;9.50;3.60;;;;;;;8.86;100.00;101931.88;5059716;28;20125;-64
2023/10/17 01:27:21;;;;;;;9.70;3.45;;;;;;;8.85;100.00;101929.38;5053976;28;20044;-64
2023/10/17 01:30:09;;;;;;;6.20;3.10;;;;;;;8.84;100.00;101928.56;5041172;28;20051;-64
2023/10/17 01:32:57;;;;;;;8.98;3.28;;;;;;;8.81;100.00;101926.31;5065464;28;20040;-63
2023/10/17 01:35:46;;;;;;;11.23;3.67;;;;;;;8.73;100.00;101919.31;5053761;28;20538;-63
2023/10/17 01:38:34;;;;;;;10.68;3.65;;;;;;;8.70;100.00;101930.59;5070840;28;20163;-64
2023/10/17 01:41:22;;;;;;;8.82;3.25;;;;;;;8.74;100.00;101925.56;5061257;28;20071;-63
2023/10/17 01:44:12;;;;;;;6.85;3.22;;;;;;;8.80;100.00;101924.63;5072543;28;20048;-62
2023/10/17 01:47:00;;;;;;;11.90;3.55;;;;;;;8.78;100.00;101917.75;5036120;28;20040;-62
2023/10/17 01:49:48;;;;;;;8.27;3.47;;;;;;;8.73;100.00;101904.88;5071500;28;20187;-62
2023/10/17 01:52:37;;;;;;;6.70;3.08;;;;;;;8.71;100.00;101886.09;5055644;28;20037;-62
2023/10/17 01:55:27;;;;;;;7.57;3.45;;;;;;;8.69;100.00;101881.94;5057763;28;20097;-64
2023/10/17 01:58:18;;;;;;;8.48;3.47;;;;;;;8.64;100.00;101889.97;5052529;28;20037;-62
2023/10/17 02:01:11;;;;;;;6.45;3.10;;;;;;;8.64;100.00;101884.53;5048798;28;20120;-63
2023/10/17 02:04:03;;;;;;;7.15;3.08;;;;;;;8.68;100.00;101889.28;5073229;28;20064;-62
2023/10/17 02:06:52;;;;;;;7.20;3.15;;;;;;;8.70;100.00;101880.88;5038673;28;20102;-62
2023/10/17 02:12:31;;;;;;;7.85;3.03;;;;;;;8.76;100.00;101871.81;5041819;28;20036;-64
2023/10/17 02:15:24;;;;;;;7.10;3.00;;;;;;;8.73;100.00;101862.25;5058208;28;20416;-64
2023/10/17 02:18:14;;;;;;;6.95;3.40;;;;;;;8.73;100.00;101861.38;5057634;28;20094;-64
2023/10/17 02:21:04;;;;;;;17.17;3.83;;;;;;;8.72;100.00;101865.19;5058420;28;20123;-63
2023/10/17 02:23:53;;;;;;;5.03;3.03;;;;;;;8.64;100.00;101857.34;5070540;28;20052;-63
2023/10/17 02:26:49;;;;;;;7.40;2.90;;;;;;;8.63;100.00;101851.06;5044004;28;20048;-63
2023/10/17 02:29:41;;;;;;;7.13;3.03;;;;;;;8.68;100.00;101855.81;5065245;28;20408;-62
2023/10/17 02:32:29;;;;;;;6.57;2.95;;;;;;;8.71;100.00;101864.34;5070302;28;20044;-63
2023/10/17 02:35:20;;;;;;;8.75;4.03;;;;;;;8.70;100.00;101870.00;5072272;28;20052;-62
2023/10/17 02:38:09;;;;;;;5.70;3.08;;;;;;;8.65;100.00;101869.88;5045882;28;20040;-63
2023/10/17 02:40:57;;;;;;;7.13;3.38;;;;;;;8.65;100.00;101859.81;5056625;28;20056;-64
2023/10/17 02:43:55;;;;;;;8.73;3.75;;;;;;;8.66;100.00;101871.50;5049663;28;20403;-63
2023/10/17 02:46:44;;;;;;;8.80;3.72;;;;;;;8.65;100.00;101870.69;5052461;28;20187;-64
2023/10/17 02:49:37;;;;;;;7.88;3.70;;;;;;;8.62;100.00;101879.31;5043949;28;20056;-64
2023/10/17 02:52:25;;;;;;;11.95;4.00;;;;;;;8.61;100.00;101868.66;5071906;28;20052;-62
2023/10/17 02:55:14;;;;;;;8.02;4.10;;;;;;;8.57;100.00;101856.63;5058030;28;20109;-62
2023/10/17 02:58:02;;;;;;;9.30;3.70;;;;;;;8.51;100.00;101864.63;5039195;28;20052;-63
2023/10/17 03:00:50;;;;;;;7.78;4.10;;;;;;;8.47;100.00;101859.88;5070466;28;20045;-61
2023/10/17 03:03:39;;;;;;;8.07;3.97;;;;;;;8.47;100.00;101874.28;5072065;28;20502;-63
2023/10/17 03:06:27;;;;;;;8.38;4.05;;;;;;;8.50;100.00;101864.84;5045159;28;20511;-63
2023/10/17 03:15:45;;;;;;;10.57;4.53;;;;;;;8.49;100.00;101861.31;5060493;28;20052;-63
2023/10/17 03:18:01;;;;;;;9.07;4.57;;;;;;;8.47;100.00;101857.97;5058888;28;20045;-63
2023/10/17 03:20:53;;;;;;;10.38;4.35;;;;;;;8.45;100.00;101859.28;5045645;28;20169;-63
2023/10/17 03:23:49;;;;;;;8.00;4.45;;;;;;;8.44;100.00;101852.16;5041932;28;20520;-62
2023/10/17 03:26:40;;;;;;;8.35;4.32;;;;;;;8.42;100.00;101859.69;5056511;28;20120;-62
2023/10/17 03:29:28;;;;;;;9.48;5.03;;;;;;;8.41;100.00;101863.50;5074164;28;20496;-64
2023/10/17 03:32:16;;;;;;;8.10;4.38;;;;;;;8.45;100.00;101857.38;5062699;28;20503;-63
2023/10/17 03:35:07;;;;;;;11.20;5.30;;;;;;;8.48;100.00;101859.63;5076143;28;20408;-63
2023/10/17 03:37:55;;;;;;;12.00;6.00;;;;;;;8.46;100.00;101869.06;5074488;28;20051;-63
2023/10/17 03:40:53;;;;;;;10.85;5.38;;;;;;;8.44;100.00;101863.03;5053695;28;20190;-64
2023/10/17 03:43:49;;;;;;;10.98;5.70;;;;;;;8.44;100.00;101863.03;5069886;28;20044;-64
2023/10/17 03:46:37;;;;;;;11.93;5.55;;;;;;;8.40;100.00;101864.56;5059428;28;20044;-64
2023/10/17 03:49:36;;;;;;;10.25;5.40;;;;;;;8.38;100.00;101858.50;5073312;28;20052;-62
2023/10/17 03:52:24;;;;;;;10.20;5.68;;;;;;;8.42;100.00;101870.56;5075038;28;20045;-62
2023/10/17 03:55:12;;;;;;;9.25;5.45;;;;;;;8.49;100.00;101876.75;5074655;28;20575;-63
2023/10/17 03:58:02;;;;;;;10.07;6.05;;;;;;;8.52;100.00;101877.13;5070971;28;20048;-64
2023/10/17 04:00:51;;;;;;;9.93;5.53;;;;;;;8.57;100.00;101873.75;5060297;28;20044;-64
2023/10/17 04:03:39;;;;;;;11.88;5.70;;;;;;;8.56;100.00;101858.47;5059068;28;20445;-64
2023/10/17 04:06:40;;;;;;;12.85;6.55;;;;;;;8.50;100.00;101862.94;5059697;28;20060;-63
2023/10/17 04:09:31;;;;;;;14.63;7.00;;;;;;;8.40;100.00;101862.66;5061486;28;20044;-63
2023/10/17 04:12:21;;;;;;;12.98;6.75;;;;;;;8.34;100.00;101860.81;5074444;28;20041;-62
2023/10/17 04:15:09;;;;;;;12.70;6.47;;;;;;;8.37;100.00;101871.25;5055084;28;20045;-64
2023/10/17 04:18:02;;;;;;;11.65;6.60;;;;;;;8.42;100.00;101876.00;5066488;28;20055;-63
2023/10/17 04:20:58;;;;;;;13.75;7.72;;;;;;;8.41;100.00;101869.75;5070501;28;20397;-62
2023/10/17 04:23:49;;;;;;;15.35;7.82;;;;;;;8.37;100.00;101873.97;5060294;28;20404;-64
2023/10/17 04:26:44;;;;;;;13.32;7.65;;;;;;;8.31;100.00;101869.44;5060148;28;20044;-63
2023/10/17 04:29:37;;;;;;;14.40;7.90;;;;;;;8.33;100.00;101878.19;5051997;28;20048;-63
2023/10/17 04:32:28;;;;;;;12.05;7.80;;;;;;;8.34;100.00;101879.81;5073243;28;20044;-62
2023/10/17 04:35:20;;;;;;;12.85;7.50;;;;;;;8.33;100.00;101878.19;5057780;28;20500;-66
2023/10/17 04:38:19;;;;;;;12.77;8.10;;;;;;;8.34;100.00;101879.81;5071655;28;20044;-63
2023/10/17 04:44:15;;;;;;;13.10;8.40;;;;;;;8.28;100.00;101883.47;5076259;28;20420;-62
2023/10/17 04:49:55;;;;;;;14.40;8.75;;;;;;;8.33;100.00;101878.19;5072490;28;20076;-64
2023/10/17 04:52:46;;;;;;;13.48;9.02;;;;;;;8.40;100.00;101884.41;5064008;28;20064;-64
2023/10/17 04:55:40;;;;;;;15.68;9.25;;;;;;;8.41;100.00;101871.63;5064212;28;20044;-62
2023/10/17 04:58:39;;;;;;;16.88;8.88;;;;;;;8.42;100.00;101871.41;5047878;28;20067;-62
2023/10/17 05:01:39;;;;;;;15.43;8.95;;;;;;;8.39;100.00;101866.38;5057627;28;20046;-63
2023/10/17 05:04:35;;;;;;;15.45;8.98;;;;;;;8.37;100.00;101878.53;5061496;28;20064;-63
2023/10/17 05:07:30;;;;;;;17.95;9.05;;;;;;;8.31;100.00;101869.44;5046500;28;20119;-63
2023/10/17 06:19:03;;;;;;;12.55;6.53;;;;;;;8.08;100.00;101846.53;5053099;28;20055;-65
2023/10/17 06:34:02;;;;;;;13.40;6.88;;;;;;;8.01;100.00;101859.31;5052848;28;20043;-64
2023/10/17 06:37:07;;;;;;;13.82;6.10;;;;;;;7.92;100.00;101862.56;5051552;28;20055;-66
2023/10/17 06:39:58;;;;;;;11.50;5.63;;;;;;;7.85;100.00;101860.75;5046048;28;20123;-66
2023/10/17 06:42:50;;;;;;;11.27;6.10;;;;;;;7.98;100.00;101859.75;5068023;28;20052;-65
2023/10/17 06:46:11;;;;;;;13.57;6.55;;;;;;;8.08;100.00;101865.53;5055593;28;20052;-66
2023/10/17 06:49:06;;;;;;;13.23;7.07;;;;;;;8.15;100.00;101872.75;5036262;28;20052;-64
2023/10/17 06:52:18;;;;;;;14.48;7.10;;;;;;;8.15;100.00;101870.84;5034909;28;20056;-67
2023/10/17 06:55:07;;;;;;;14.63;7.32;;;;;;;8.16;100.00;101871.69;5070255;28;20053;-66
2023/10/17 06:57:57;;;;;;;12.18;6.22;;;;;;;8.19;100.00;101865.81;5057565;28;20042;-65
2023/10/17 07:00:51;;;;;;;15.00;7.05;;;;;;;8.21;100.00;101869.97;5072407;28;20049;-65
2023/10/17 07:03:45;;;;;;;11.57;6.78;;;;;;;8.20;100.00;101867.47;5070549;28;20053;-65
2023/10/17 07:06:38;;;;;;;13.98;7.72;;;;;;;8.15;100.00;101875.47;5045407;28;20041;-66
2023/10/17 07:09:30;;;;;;;11.85;7.43;;;;;;;8.09;100.00;101872.59;5071376;28;20041;-67
2023/10/17 07:12:20;;;;;;;10.68;7.22;;;;;;;8.11;100.00;101872.38;5072123;28;20106;-65
2023/10/17 07:15:21;;;;;;;15.40;8.65;;;;;;;8.07;100.00;101866.56;5071769;28;20049;-66
2023/10/17 07:21:17;;;;;;;14.95;7.53;;;;;;;8.04;100.00;101868.91;5071935;28;20044;-65
2023/10/17 07:24:07;;;;;;;14.38;8.35;;;;;;;8.06;100.00;101873.06;5038745;28;20057;-67
2023/10/17 07:26:56;;;;;;;14.95;8.20;;;;;;;8.04;100.00;101871.63;5057917;28;20076;-67
2023/10/17 07:30:00;;;;;;;16.95;9.00;;;;;;;8.05;100.00;101871.38;5071018;28;20044;-68
2023/10/17 07:32:54;;;;;;;13.57;8.25;;;;;;;8.04;100.00;101869.72;5071890;28;20089;-66
2023/10/17 07:35:42;;;;;;;14.15;8.57;;;;;;;8.08;100.00;101870.09;5072207;28;20047;-67
2023/10/17 07:38:30;;;;;;;13.98;8.95;;;;;;;8.03;100.00;101867.22;5056721;28;20044;-67
2023/10/17 07:41:34;;;;;;;14.80;8.93;;;;;;;7.98;100.00;101870.63;5036931;28;20053;-67
2023/10/17 07:44:25;;;;;;;15.02;9.23;;;;;;;7.98;100.00;101870.63;5018967;28;20041;-67
2023/10/17 07:47:20;;;;;;;14.13;9.15;;;;;;;7.96;100.00;101867.31;5032389;28;20046;-68
2023/10/17 07:50:13;;;;;;;15.55;9.30;;;;;;;7.98;100.00;101869.78;5015240;28;20045;-69
2023/10/17 07:53:05;;;;;;;16.02;9.60;;;;;;;7.98;100.00;101865.19;5033177;28;20056;-67
2023/10/17 07:56:04;;;;;;;14.70;9.63;;;;;;;7.94;100.00;101874.84;5035476;28;20052;-70
2023/10/17 07:59:04;;;;;;;13.90;9.43;;;;;;;7.93;100.00;101870.47;5022813;28;20374;-69
2023/10/17 08:01:58;;;;;;;15.25;10.18;;;;;;;7.95;100.00;101865.66;5020180;28;20056;-68
2023/10/17 08:04:48;;;;;;;16.35;10.20;;;;;;;7.97;100.00;101857.28;5035108;28;20052;-68
2023/10/17 08:07:36;;;;;;;17.40;10.15;;;;;;;8.00;100.00;101856.84;5033532;28;20512;-68
2023/10/17 08:10:30;;;;;;;15.43;9.88;;;;;;;8.06;100.00;101862.19;5035167;28;20045;-68
2023/10/17 08:13:19;;;;;;;16.92;10.43;;;;;;;8.09;100.00;101848.16;5033853;28;20049;-68
2023/10/17 08:16:11;;;;;;;16.40;10.13;;;;;;;8.15;100.00;101853.75;5034946;28;20061;-68
2023/10/17 08:19:12;;;;;;;14.27;9.30;;;;;;;8.37;100.00;101851.38;5033653;28;20454;-68
2023/10/17 08:24:59;;;;;;;16.25;9.60;;;;;;;8.45;100.00;101857.38;5035829;28;20060;-68
2023/10/17 08:27:47;;;;;;;15.63;9.50;;;;;;;8.49;100.00;101850.44;5020525;28;20049;-68
2023/10/17 08:30:38;;;;;;;14.95;9.20;;;;;;;8.56;100.00;101854.94;5035283;28;20130;-69
2023/10/17 08:33:42;;;;;;;13.93;8.23;;;;;;;8.54;100.00;101849.75;5033179;28;20052;-67
2023/10/17 08:42:30;;;;;;;13.63;8.48;;;;;;;8.58;100.00;101853.66;5074617;28;20040;-67
2023/10/17 08:45:19;;;;;;;17.27;8.88;;;;;;;8.61;100.00;101858.66;5074448;28;20135;-68
2023/10/17 08:48:11;;;;;;;13.73;7.80;;;;;;;8.65;100.00;101859.00;5058767;28;20044;-68
2023/10/17 08:50:59;;;;;;;15.27;8.77;;;;;;;8.66;100.00;101849.78;5065461;28;20048;-66
2023/10/17 08:53:54;;;;;;;16.58;8.55;;;;;;;8.72;100.00;101857.03;5073752;28;20051;-68
2023/10/17 08:56:44;;;;;;;17.27;9.13;;;;;;;8.74;100.00;101852.19;5061325;28;20145;-68
2023/10/17 09:02:29;;;;;;;14.43;8.82;;;;;;;8.88;100.00;101844.69;5054768;28;20056;-68
2023/10/17 09:05:18;;;;;;;12.07;7.93;;;;;;;8.91;100.00;101844.22;5027582;28;20045;-68
2023/10/17 09:08:11;;;;;;;18.77;9.10;;;;;;;8.92;100.00;101852.16;5040784;28;20129;-68
2023/10/17 09:11:08;;;;;;;12.05;7.70;;;;;;;8.96;100.00;101855.22;5061290;28;20048;-68
2023/10/17 09:20:11;;;;;;;11.07;7.63;;;;;;;9.09;100.00;101860.47;5060983;28;20416;-68
2023/10/17 09:22:59;;;;;;;19.15;7.75;;;;;;;9.14;100.00;101868.75;5061291;28;20048;-67
2023/10/17 09:25:54;;;;;;;12.20;6.68;;;;;;;9.19;100.00;101865.34;5039372;28;20068;-68
2023/10/17 09:28:42;;;;;;;12.77;8.13;;;;;;;9.22;100.00;101878.47;5026336;28;20107;-69
2023/10/17 09:31:30;;;;;;;15.35;7.32;;;;;;;9.23;100.00;101874.66;5077967;28;20040;-68
2023/10/17 09:34:20;;;;;;;10.68;5.80;;;;;;;9.27;100.00;101859.56;5051086;28;20405;-68
2023/10/17 09:37:12;;;;;;;12.88;7.72;;;;;;;9.25;100.00;101856.22;5066817;28;20062;-69
2023/10/17 09:40:11;;;;;;;14.60;8.35;;;;;;;9.29;100.00;101860.16;5050302;28;20048;-68
2023/10/17 09:43:00;;;;;;;13.52;9.20;;;;;;;9.35;100.00;101869.25;5049137;28;20132;-70
2023/10/17 09:45:55;;;;;;;15.52;8.27;;;;;;;9.37;100.00;101870.69;5040281;28;20053;-68
2023/10/17 09:48:48;;;;;;;12.27;8.05;;;;;;;9.38;100.00;101871.53;5041505;28;20489;-68
2023/10/17 09:51:40;;;;;;;13.68;7.65;;;;;;;9.38;100.00;101875.06;5056620;28;20041;-70
2023/10/17 09:54:33;;;;;;;12.48;7.47;;;;;;;9.39;100.00;101862.28;5042580;28;20408;-69
2023/10/17 09:57:24;;;;;;;14.57;8.20;;;;;;;9.47;100.00;101872.00;5069590;28;20048;-69
2023/10/17 10:00:27;;;;;;;12.55;7.68;;;;;;;9.51;100.00;101874.00;5078785;28;20040;-67
2023/10/17 10:03:17;;;;;;;14.07;7.20;;;;;;;9.51;100.00;101867.75;5050166;28;20104;-69
2023/10/17 10:06:30;;;;;;;12.40;6.75;;;;;;;9.55;100.00;101872.50;5050261;28;20622;-67
2023/10/17 10:09:26;;;;;;;11.48;6.32;;;;;;;9.60;100.00;101859.00;5042376;28;20055;-63
2023/10/17 10:12:15;;;;;;;13.57;7.22;;;;;;;9.62;100.00;101866.94;5086318;28;20076;-63
2023/10/17 10:15:06;;;;;;;11.38;5.80;;;;;;;9.67;100.00;101866.22;5073116;28;20054;-67
2023/10/17 10:17:55;;;;;;;12.02;6.45;;;;;;;9.69;100.00;101859.50;5078670;28;20043;-68
2023/10/17 10:20:59;;;;;;;11.35;6.03;;;;;;;9.72;100.00;101858.19;5071234;28;20048;-68
2023/10/17 10:23:48;;;;;;;11.30;6.43;;;;;;;9.74;100.00;101856.88;5067575;28;20092;-67
2023/10/17 10:26:36;;;;;;;11.40;6.55;;;;;;;9.80;100.00;101853.19;5057000;28;20419;-68
2023/10/17 10:29:24;;;;;;;12.05;6.10;;;;;;;9.86;100.00;101853.31;5063847;28;20145;-68
2023/10/17 10:32:25;;;;;;;11.30;5.95;;;;;;;9.90;100.00;101851.78;5060528;28;20269;-68
2023/10/17 10:35:15;;;;;;;11.23;5.90;;;;;;;9.91;100.00;101848.81;5072558;28;20497;-68
2023/10/17 10:38:06;;;;;;;10.35;5.20;;;;;;;9.94;100.00;101839.34;5073596;28;20054;-69
2023/10/17 10:40:54;;;;;;;10.50;5.82;;;;;;;9.96;100.00;101839.94;5071159;28;20357;-68
2023/10/17 10:43:43;;;;;;;10.77;5.90;;;;;;;9.99;100.00;101834.00;5044605;28;20488;-66
2023/10/17 10:46:31;;;;;;;8.93;5.07;;;;;;;10.06;100.00;101839.34;5060236;28;20051;-68
2023/10/17 10:49:30;;;;;;;11.52;5.65;;;;;;;10.10;100.00;101827.72;5073298;28;20060;-68
2023/10/17 10:52:24;;;;;;;10.75;5.60;;;;;;;10.11;100.00;101817.66;5058375;28;20052;-68
2023/10/17 10:55:14;;;;;;;12.70;6.15;;;;;;;10.11;100.00;101818.47;5073135;28;20041;-68
2023/10/17 10:58:03;;;;;;;8.68;5.00;;;;;;;10.16;100.00;101807.69;5074567;28;20052;-68
2023/10/17 11:00:54;;;;;;;9.52;4.82;;;;;;;10.18;99.85;101802.84;5056541;28;20040;-69
2023/10/17 11:03:44;;;;;;;9.30;5.03;;;;;;;10.20;100.00;101805.31;5060293;28;20048;-68
2023/10/17 11:06:35;;;;;;;12.00;5.60;;;;;;;10.22;100.00;101801.28;5073672;28;20116;-68
2023/10/17 11:09:25;;;;;;;9.23;5.05;;;;;;;10.26;100.00;101792.63;5071220;28;20175;-68
2023/10/17 11:12:21;;;;;;;10.18;4.80;;;;;;;10.33;100.00;101799.63;5058820;28;20477;-69
2023/10/17 11:15:14;;;;;;;8.98;4.70;;;;;;;10.40;97.69;101794.03;5044503;28;20053;-66
2023/10/17 11:18:07;;;;;;;9.98;4.50;;;;;;;10.41;96.55;101782.91;5058468;28;20040;-68
2023/10/17 11:20:56;;;;;;;8.85;4.50;;;;;;;10.43;97.84;101774.47;5030303;28;20052;-69
2023/10/17 11:23:53;;;;;;;10.70;5.15;;;;;;;10.46;98.88;101768.53;5072899;28;20047;-68
2023/10/17 11:26:41;;;;;;;10.57;4.00;;;;;;;10.48;97.31;101774.56;5046010;28;20455;-68
2023/10/17 11:29:29;;;;;;;8.30;4.05;;;;;;;10.53;96.98;101765.66;5057448;28;20048;-69
2023/10/17 11:32:17;;;;;;;9.45;4.22;;;;;;;10.57;94.20;101758.66;5077133;28;20045;-68
2023/10/17 11:35:19;;;;;;;6.15;3.55;;;;;;;10.59;95.33;101760.06;5061215;28;20424;-68
2023/10/17 11:38:33;;;;;;;7.78;3.50;;;;;;;10.60;94.78;101756.25;5076704;28;20488;-69
2023/10/17 11:41:39;;;;;;;8.90;3.58;;;;;;;10.65;93.19;101759.09;5053453;28;20063;-68
2023/10/17 11:44:27;;;;;;;;;;;;;;;10.68;95.20;101754.19;5050879;28;20145;-67
2023/10/17 11:47:22;;;;;;;7.32;3.70;;;;;;;10.74;93.37;101753.22;5050127;28;20123;-68
2023/10/17 11:50:10;;;;;;;7.50;3.65;;;;;;;10.77;93.83;101769.09;5056231;28;20049;-68
2023/10/17 11:53:12;;;;;;;9.18;3.78;;;;;;;10.78;92.97;101763.41;5055332;28;20049;-67
2023/10/17 11:56:01;;;;;;;12.82;4.63;;;;;;;10.83;96.06;101755.31;5055512;28;20049;-66
2023/10/17 11:58:53;;;;;;;14.02;4.72;;;;;;;10.90;96.14;101749.69;5051886;28;20055;-68
2023/10/17 12:01:40;;;;;;;6.65;3.47;;;;;;;10.95;90.33;101744.31;5061080;28;20088;-68
2023/10/17 12:04:29;;;;;;;6.95;3.28;;;;;;;10.92;87.74;101746.69;5076417;28;20056;-69
2023/10/17 12:07:19;;;;;;;6.30;3.13;;;;;;;10.88;89.61;101749.09;5076617;28;20067;-68
2023/10/17 12:10:08;;;;;;;6.82;3.28;;;;;;;10.86;89.85;101743.06;5075072;28;20408;-68
2023/10/17 12:12:59;;;;;;;6.85;3.20;;;;;;;10.85;90.34;101741.44;5075455;28;20052;-68
2023/10/17 12:15:48;;;;;;;6.68;3.35;;;;;;;10.91;90.34;101756.78;5076178;28;20048;-65
2023/10/17 12:18:36;;;;;;;4.90;2.92;;;;;;;10.95;90.30;101751.69;5060782;28;20059;-67
2023/10/17 12:21:24;;;;;;;6.45;3.10;;;;;;;10.98;89.70;101752.00;5060202;28;20428;-67
2023/10/17 12:24:12;;;;;;;5.32;2.95;;;;;;;11.00;88.59;101738.94;5074784;28;20048;-68
2023/10/17 12:27:07;;;;;;;8.45;2.92;;;;;;;11.02;87.36;101725.88;5047576;28;20048;-68
2023/10/17 12:29:56;;;;;;;4.38;2.80;;;;;;;11.04;87.27;101721.00;5075734;28;20051;-68
2023/10/17 12:32:45;;;;;;;6.10;2.78;;;;;;;11.09;86.86;101720.28;5074837;28;20047;-69
2023/10/17 12:35:33;;;;;;;5.80;2.97;;;;;;;11.13;85.14;101701.50;5061806;28;20186;-69
2023/10/17 12:38:25;;;;;;;7.35;3.03;;;;;;;11.15;85.94;101691.16;5072163;28;20094;-68
2023/10/17 12:41:14;;;;;;;5.28;3.05;;;;;;;11.16;85.31;101687.34;5074373;28;20057;-68
2023/10/17 12:44:03;;;;;;;5.38;3.05;;;;;;;11.19;85.61;101678.69;5062031;28;20126;-68
2023/10/17 12:46:51;;;;;;;5.07;2.85;;;;;;;11.24;85.33;101678.75;5048608;28;20045;-69
2023/10/17 12:49:39;;;;;;;7.43;2.92;;;;;;;11.22;87.16;101664.53;5061340;28;20546;-68
2023/10/17 12:52:27;;;;;;;7.35;3.17;;;;;;;11.22;87.23;101653.63;5059120;28;20519;-68
2023/10/17 12:55:19;;;;;;;4.85;2.80;;;;;;;11.23;86.06;101647.06;5059802;28;20489;-69
2023/10/17 12:58:10;;;;;;;7.65;3.50;;;;;;;11.24;84.62;101632.38;5074976;28;20527;-70
2023/10/17 13:00:59;;;;;;;6.00;3.30;;;;;;;11.24;84.41;101629.66;5074431;28;20508;-69
2023/10/17 13:03:53;;;;;;;4.88;2.75;;;;;;;11.28;84.66;101637.06;5060004;28;20132;-69
2023/10/17 13:06:42;;;;;;;6.40;3.30;;;;;;;11.31;84.16;101633.03;5075169;28;20049;-70
2023/10/17 13:09:32;;;;;;;6.82;2.92;;;;;;;11.34;83.61;101643.41;5075239;28;20040;-70
2023/10/17 13:12:20;;;;;;;6.93;3.45;;;;;;;11.32;84.18;101637.38;5060392;28;20041;-68
2023/10/17 13:15:09;;;;;;;6.47;3.00;;;;;;;11.33;84.13;101644.50;5072981;28;20040;-68
2023/10/17 13:18:00;;;;;;;5.85;3.10;;;;;;;11.35;83.58;101645.06;5074608;28;20048;-70
2023/10/17 13:20:49;;;;;;;8.00;3.53;;;;;;;11.36;84.00;101644.00;5074291;28;20040;-67
2023/10/17 13:23:58;;;;;;;5.82;3.30;;;;;;;11.37;83.43;101642.09;5073837;28;20048;-67
2023/10/17 13:26:46;;;;;;;5.97;3.30;;;;;;;11.42;85.29;101625.78;5072683;28;20440;-67
2023/10/17 13:29:34;;;;;;;5.80;2.80;;;;;;;11.40;83.97;101625.19;5073744;28;20045;-68
2023/10/17 13:32:26;;;;;;;6.38;3.10;;;;;;;11.36;84.40;101626.81;5074324;28;20045;-67
2023/10/17 13:35:14;;;;;;;4.55;2.88;;;;;;;11.34;86.07;101632.50;5073630;28;20106;-67
2023/10/17 13:38:02;;;;;;;5.70;3.00;;;;;;;11.32;86.70;101626.47;5067391;28;20464;-68
2023/10/17 13:40:50;;;;;;;7.90;3.00;;;;;;;11.28;85.83;101628.91;5046874;28;20048;-68
2023/10/17 13:43:38;;;;;;;6.03;3.10;;;;;;;11.27;86.41;101635.41;5046399;28;20129;-69
2023/10/17 13:46:26;;;;;;;8.93;3.35;;;;;;;11.28;86.42;101619.84;5074371;28;20079;-68
2023/10/17 13:49:15;;;;;;;6.85;3.00;;;;;;;11.31;86.75;101622.09;5045684;28;20053;-68
2023/10/17 13:52:03;;;;;;;6.80;3.08;;;;;;;11.33;88.28;101621.84;5071965;28;20125;-68
2023/10/17 13:54:51;;;;;;;8.25;3.45;;;;;;;11.35;88.05;101611.50;5073141;28;20056;-68
2023/10/17 13:57:42;;;;;;;10.32;3.53;;;;;;;11.38;88.04;101619.19;5045735;28;20056;-68
2023/10/17 14:00:42;;;;;;;5.82;3.47;;;;;;;11.39;88.96;101610.72;5073760;28;20044;-69
2023/10/17 14:03:31;;;;;;;9.73;3.75;;;;;;;11.42;90.67;101596.56;5072139;28;20048;-68
2023/10/17 14:06:20;;;;;;;7.28;3.42;;;;;;;11.43;91.11;101606.44;5073710;28;20132;-68
2023/10/17 14:09:14;;;;;;;8.43;4.20;;;;;;;11.46;92.41;101603.19;5071312;28;20040;-69
2023/10/17 14:12:03;;;;;;;8.55;3.80;;;;;;;11.49;93.08;101599.94;5072746;28;20049;-69
2023/10/17 14:14:51;;;;;;;9.20;3.70;;;;;;;11.48;91.78;101595.56;5073247;28;20136;-67
2023/10/17 14:17:45;;;;;;;7.32;3.97;;;;;;;11.51;92.55;101597.78;5072368;28;20465;-68
2023/10/17 14:20:40;;;;;;;9.55;4.20;;;;;;;11.51;91.73;101597.78;5073037;28;20137;-69
2023/10/17 14:26:35;;;;;;;6.97;3.90;;;;;;;11.55;91.57;101591.84;5076927;28;20090;-67
2023/10/17 14:29:23;;;;;;;6.80;4.05;;;;;;;11.55;93.09;101591.84;5066444;28;20040;-68
2023/10/17 14:32:15;;;;;;;8.65;4.18;;;;;;;11.54;92.54;101595.63;5081631;28;20040;-68
2023/10/17 14:35:04;;;;;;;6.75;3.50;;;;;;;11.51;92.38;101595.06;5072576;28;20052;-65
2023/10/17 14:37:52;;;;;;;7.15;3.90;;;;;;;11.50;92.60;101592.59;5089978;28;20049;-67
2023/10/17 14:40:42;;;;;;;8.00;4.40;;;;;;;11.48;92.70;101598.28;5086381;28;20078;-66
2023/10/17 14:43:30;;;;;;;9.10;4.13;;;;;;;11.48;92.07;101576.47;5084664;28;20104;-69
2023/10/17 14:46:21;;;;;;;8.13;3.88;;;;;;;11.48;91.72;101581.94;5077331;28;20125;-68
2023/10/17 14:49:12;;;;;;;6.80;3.70;;;;;;;11.50;93.40;101574.31;5072623;28;20209;-68
2023/10/17 14:52:00;;;;;;;7.28;4.07;;;;;;;11.49;92.22;101574.56;5071561;28;20041;-67
2023/10/17 14:54:48;;;;;;;9.23;4.50;;;;;;;11.45;91.46;101566.06;5073418;28;20527;-67
2023/10/17 14:57:36;;;;;;;7.20;3.92;;;;;;;11.44;92.10;101561.69;5073047;28;20041;-68
2023/10/17 15:00:24;;;;;;;8.15;4.05;;;;;;;11.44;92.39;101552.66;5072304;28;20064;-67
2023/10/17 15:03:13;;;;;;;7.68;3.70;;;;;;;11.41;92.08;101547.72;5071255;28;20055;-66
2023/10/17 15:06:01;;;;;;;6.88;4.03;;;;;;;11.41;91.72;101542.28;5071592;28;20053;-68
2023/10/17 15:08:49;;;;;;;8.07;4.18;;;;;;;11.41;91.88;101554.00;5073279;28;20137;-68
2023/10/17 15:11:40;;;;;;;6.47;3.90;;;;;;;11.41;92.76;101548.56;5071998;28;20509;-69
2023/10/17 15:14:29;;;;;;;8.43;4.32;;;;;;;11.41;92.78;101547.72;5072503;28;20648;-69